sensor_id;sensor_type;location;lat;lon;timestamp;temperature;humidity
18339;DHT22;9295;44.484;11.240;2022-12-19T00:00:34;4.60;99.90
18339;DHT22;9295;44.484;11.240;2022-12-19T00:03:03;4.60;99.90
18339;DHT22;9295;44.484;11.240;2022-12-19T00:05:35;4.60;99.90
18339;DHT22;9295;44.484;11.240;2022-12-19T00:08:08;4.60;99.90
18339;DHT22;9295;44.484;11.240;2022-12-19T00:10:46;4.70;99.90
18339;DHT22;9295;44.484;11.240;2022-12-19T00:13:20;4.70;99.90
18339;DHT22;9295;44.484;11.240;2022-12-19T00:15:49;4.70;99.90
18339;DHT22;9295;44.484;11.240;2022-12-19T00:18:17;4.80;99.90
18339;DHT22;9295;44.484;11.240;2022-12-19T00:20:54;4.70;99.90
18339;DHT22;9295;44.484;11.240;2022-12-19T00:23:24;4.80;99.90
18339;DHT22;9295;44.484;11.240;2022-12-19T00:25:53;4.80;99.90
18339;DHT22;9295;44.484;11.240;2022-12-19T00:28:22;4.80;99.90
18339;DHT22;9295;44.484;11.240;2022-12-19T00:30:51;4.80;99.90
18339;DHT22;9295;44.484;11.240;2022-12-19T00:33:22;4.80;99.90
18339;DHT22;9295;44.484;11.240;2022-12-19T00:35:56;4.80;99.90
18339;DHT22;9295;44.484;11.240;2022-12-19T00:38:27;4.70;99.90
18339;DHT22;9295;44.484;11.240;2022-12-19T00:41:05;4.70;99.90
18339;DHT22;9295;44.484;11.240;2022-12-19T00:43:35;4.60;99.90
18339;DHT22;9295;44.484;11.240;2022-12-19T00:46:06;4.60;99.90
18339;DHT22;9295;44.484;11.240;2022-12-19T00:48:35;4.50;99.90
18339;DHT22;9295;44.484;11.240;2022-12-19T00:51:05;4.50;99.90
18339;DHT22;9295;44.484;11.240;2022-12-19T00:53:35;4.50;99.90
18339;DHT22;9295;44.484;11.240;2022-12-19T00:56:05;4.40;99.90
18339;DHT22;9295;44.484;11.240;2022-12-19T00:58:34;4.50;99.90
18339;DHT22;9295;44.484;11.240;2022-12-19T01:01:05;4.50;99.90
18339;DHT22;9295;44.484;11.240;2022-12-19T01:03:34;4.50;99.90
18339;DHT22;9295;44.484;11.240;2022-12-19T01:06:04;4.50;99.90
18339;DHT22;9295;44.484;11.240;2022-12-19T01:08:34;4.60;99.90
18339;DHT22;9295;44.484;11.240;2022-12-19T01:11:03;4.60;99.90
18339;DHT22;9295;44.484;11.240;2022-12-19T01:13:37;4.60;99.90
18339;DHT22;9295;44.484;11.240;2022-12-19T01:16:10;4.50;99.90
18339;DHT22;9295;44.484;11.240;2022-12-19T01:18:40;4.60;99.90
18339;DHT22;9295;44.484;11.240;2022-12-19T01:21:10;4.60;99.90
18339;DHT22;9295;44.484;11.240;2022-12-19T01:23:39;4.60;99.90
18339;DHT22;9295;44.484;11.240;2022-12-19T01:26:08;4.50;99.90
18339;DHT22;9295;44.484;11.240;2022-12-19T01:28:37;4.50;99.90
18339;DHT22;9295;44.484;11.240;2022-12-19T01:31:06;4.50;99.90
18339;DHT22;9295;44.484;11.240;2022-12-19T01:33:41;4.50;99.90
18339;DHT22;9295;44.484;11.240;2022-12-19T01:36:11;4.50;99.90
18339;DHT22;9295;44.484;11.240;2022-12-19T01:38:41;4.50;99.90
18339;DHT22;9295;44.484;11.240;2022-12-19T01:41:09;4.50;99.90
18339;DHT22;9295;44.484;11.240;2022-12-19T01:43:53;4.50;99.90
18339;DHT22;9295;44.484;11.240;2022-12-19T01:46:25;4.40;99.90
18339;DHT22;9295;44.484;11.240;2022-12-19T01:48:55;4.50;99.90
18339;DHT22;9295;44.484;11.240;2022-12-19T01:51:29;4.40;99.90
18339;DHT22;9295;44.484;11.240;2022-12-19T01:54:05;4.40;99.90
18339;DHT22;9295;44.484;11.240;2022-12-19T01:56:37;4.40;99.90
18339;DHT22;9295;44.484;11.240;2022-12-19T01:59:09;4.40;99.90
18339;DHT22;9295;44.484;11.240;2022-12-19T02:01:44;4.40;99.90
18339;DHT22;9295;44.484;11.240;2022-12-19T02:04:21;4.40;99.90
18339;DHT22;9295;44.484;11.240;2022-12-19T02:06:54;4.40;99.90
18339;DHT22;9295;44.484;11.240;2022-12-19T02:09:26;4.40;99.90
18339;DHT22;9295;44.484;11.240;2022-12-19T02:11:54;4.40;99.90
18339;DHT22;9295;44.484;11.240;2022-12-19T02:14:26;4.40;99.90
18339;DHT22;9295;44.484;11.240;2022-12-19T02:17:01;4.30;99.90
18339;DHT22;9295;44.484;11.240;2022-12-19T02:19:51;4.30;99.90
18339;DHT22;9295;44.484;11.240;2022-12-19T02:22:28;4.30;99.90
18339;DHT22;9295;44.484;11.240;2022-12-19T02:25:43;4.20;99.90
18339;DHT22;9295;44.484;11.240;2022-12-19T02:28:39;4.20;99.90
18339;DHT22;9295;44.484;11.240;2022-12-19T02:31:17;4.20;99.90
18339;DHT22;9295;44.484;11.240;2022-12-19T02:33:54;4.20;99.90
18339;DHT22;9295;44.484;11.240;2022-12-19T02:36:29;4.20;99.90
18339;DHT22;9295;44.484;11.240;2022-12-19T02:39:08;4.20;99.90
18339;DHT22;9295;44.484;11.240;2022-12-19T02:41:41;4.10;99.90
18339;DHT22;9295;44.484;11.240;2022-12-19T02:44:22;4.10;99.90
18339;DHT22;9295;44.484;11.240;2022-12-19T02:46:55;4.10;99.90
18339;DHT22;9295;44.484;11.240;2022-12-19T02:49:26;4.00;99.90
18339;DHT22;9295;44.484;11.240;2022-12-19T02:52:07;3.90;99.90
18339;DHT22;9295;44.484;11.240;2022-12-19T02:54:37;4.00;99.90
18339;DHT22;9295;44.484;11.240;2022-12-19T02:57:18;4.00;99.90
18339;DHT22;9295;44.484;11.240;2022-12-19T02:59:56;4.00;99.90
18339;DHT22;9295;44.484;11.240;2022-12-19T03:02:35;4.10;99.90
18339;DHT22;9295;44.484;11.240;2022-12-19T03:05:14;4.10;99.90
18339;DHT22;9295;44.484;11.240;2022-12-19T03:07:50;4.10;99.90
18339;DHT22;9295;44.484;11.240;2022-12-19T03:10:27;4.00;99.90
18339;DHT22;9295;44.484;11.240;2022-12-19T03:13:01;4.00;99.90
18339;DHT22;9295;44.484;11.240;2022-12-19T03:15:31;4.10;99.90
18339;DHT22;9295;44.484;11.240;2022-12-19T03:18:01;4.10;99.90
18339;DHT22;9295;44.484;11.240;2022-12-19T03:20:38;4.10;99.90
18339;DHT22;9295;44.484;11.240;2022-12-19T03:23:09;4.10;99.90
18339;DHT22;9295;44.484;11.240;2022-12-19T03:25:40;4.10;99.90
18339;DHT22;9295;44.484;11.240;2022-12-19T03:28:12;4.10;99.90
18339;DHT22;9295;44.484;11.240;2022-12-19T03:30:44;4.10;99.90
18339;DHT22;9295;44.484;11.240;2022-12-19T03:33:16;4.10;99.90
18339;DHT22;9295;44.484;11.240;2022-12-19T03:35:48;4.10;99.90
18339;DHT22;9295;44.484;11.240;2022-12-19T03:38:19;4.10;99.90
18339;DHT22;9295;44.484;11.240;2022-12-19T03:40:49;4.10;99.90
18339;DHT22;9295;44.484;11.240;2022-12-19T03:43:18;4.10;99.90
18339;DHT22;9295;44.484;11.240;2022-12-19T03:45:51;4.10;99.90
18339;DHT22;9295;44.484;11.240;2022-12-19T03:48:29;4.10;99.90
18339;DHT22;9295;44.484;11.240;2022-12-19T03:51:04;4.10;99.90
18339;DHT22;9295;44.484;11.240;2022-12-19T03:53:47;4.00;99.90
18339;DHT22;9295;44.484;11.240;2022-12-19T03:56:21;4.00;99.90
18339;DHT22;9295;44.484;11.240;2022-12-19T03:58:58;4.00;99.90
18339;DHT22;9295;44.484;11.240;2022-12-19T04:01:31;4.00;99.90
18339;DHT22;9295;44.484;11.240;2022-12-19T04:04:02;4.10;99.90
18339;DHT22;9295;44.484;11.240;2022-12-19T04:06:32;4.10;99.90
18339;DHT22;9295;44.484;11.240;2022-12-19T04:09:02;4.00;99.90
18339;DHT22;9295;44.484;11.240;2022-12-19T04:11:34;4.00;99.90
18339;DHT22;9295;44.484;11.240;2022-12-19T04:14:07;4.00;99.90
18339;DHT22;9295;44.484;11.240;2022-12-19T04:16:41;4.00;99.90
18339;DHT22;9295;44.484;11.240;2022-12-19T04:19:16;3.90;99.90
18339;DHT22;9295;44.484;11.240;2022-12-19T04:21:49;3.80;99.90
18339;DHT22;9295;44.484;11.240;2022-12-19T04:24:24;3.80;99.90
18339;DHT22;9295;44.484;11.240;2022-12-19T04:26:55;3.80;99.90
18339;DHT22;9295;44.484;11.240;2022-12-19T04:29:25;3.80;99.90
18339;DHT22;9295;44.484;11.240;2022-12-19T04:31:55;3.80;99.90
18339;DHT22;9295;44.484;11.240;2022-12-19T04:34:25;3.80;99.90
18339;DHT22;9295;44.484;11.240;2022-12-19T04:36:56;3.80;99.90
18339;DHT22;9295;44.484;11.240;2022-12-19T04:39:28;3.80;99.90
18339;DHT22;9295;44.484;11.240;2022-12-19T04:41:56;3.80;99.90
18339;DHT22;9295;44.484;11.240;2022-12-19T04:44:24;3.70;99.90
18339;DHT22;9295;44.484;11.240;2022-12-19T04:46:53;3.80;99.90
18339;DHT22;9295;44.484;11.240;2022-12-19T04:49:21;3.80;99.90
18339;DHT22;9295;44.484;11.240;2022-12-19T04:51:51;3.70;99.90
18339;DHT22;9295;44.484;11.240;2022-12-19T04:54:20;3.70;99.90
18339;DHT22;9295;44.484;11.240;2022-12-19T04:56:49;3.60;99.90
18339;DHT22;9295;44.484;11.240;2022-12-19T04:59:17;3.60;99.90
18339;DHT22;9295;44.484;11.240;2022-12-19T05:01:46;3.60;99.90
18339;DHT22;9295;44.484;11.240;2022-12-19T05:04:14;3.60;99.90
18339;DHT22;9295;44.484;11.240;2022-12-19T05:06:43;3.70;99.90
18339;DHT22;9295;44.484;11.240;2022-12-19T05:09:13;3.70;99.90
18339;DHT22;9295;44.484;11.240;2022-12-19T05:11:41;3.70;99.90
18339;DHT22;9295;44.484;11.240;2022-12-19T05:14:09;3.70;99.90
18339;DHT22;9295;44.484;11.240;2022-12-19T05:16:38;3.70;99.90
18339;DHT22;9295;44.484;11.240;2022-12-19T05:19:07;3.60;99.90
18339;DHT22;9295;44.484;11.240;2022-12-19T05:21:35;3.60;99.90
18339;DHT22;9295;44.484;11.240;2022-12-19T05:24:04;3.60;99.90
18339;DHT22;9295;44.484;11.240;2022-12-19T05:26:34;3.50;99.90
18339;DHT22;9295;44.484;11.240;2022-12-19T05:29:03;3.50;99.90
18339;DHT22;9295;44.484;11.240;2022-12-19T05:31:31;3.50;99.90
18339;DHT22;9295;44.484;11.240;2022-12-19T05:34:00;3.50;99.90
18339;DHT22;9295;44.484;11.240;2022-12-19T05:36:28;3.50;99.90
18339;DHT22;9295;44.484;11.240;2022-12-19T05:38:59;3.50;99.90
18339;DHT22;9295;44.484;11.240;2022-12-19T05:41:27;3.50;99.90
18339;DHT22;9295;44.484;11.240;2022-12-19T05:43:57;3.50;99.90
18339;DHT22;9295;44.484;11.240;2022-12-19T05:46:25;3.50;99.90
18339;DHT22;9295;44.484;11.240;2022-12-19T05:48:54;3.50;99.90
18339;DHT22;9295;44.484;11.240;2022-12-19T05:51:24;3.50;99.90
18339;DHT22;9295;44.484;11.240;2022-12-19T05:53:52;3.60;99.90
18339;DHT22;9295;44.484;11.240;2022-12-19T05:56:21;3.60;99.90
18339;DHT22;9295;44.484;11.240;2022-12-19T05:58:50;3.60;99.90
18339;DHT22;9295;44.484;11.240;2022-12-19T06:01:21;3.60;99.90
18339;DHT22;9295;44.484;11.240;2022-12-19T06:03:50;3.60;99.90
18339;DHT22;9295;44.484;11.240;2022-12-19T06:06:20;3.60;99.90
18339;DHT22;9295;44.484;11.240;2022-12-19T06:08:52;3.60;99.90
18339;DHT22;9295;44.484;11.240;2022-12-19T06:11:21;3.60;99.90
18339;DHT22;9295;44.484;11.240;2022-12-19T06:13:50;3.60;99.90
18339;DHT22;9295;44.484;11.240;2022-12-19T06:16:21;3.60;99.90
18339;DHT22;9295;44.484;11.240;2022-12-19T06:18:50;3.60;99.90
18339;DHT22;9295;44.484;11.240;2022-12-19T06:21:20;3.60;99.90
18339;DHT22;9295;44.484;11.240;2022-12-19T06:23:49;3.60;99.90
18339;DHT22;9295;44.484;11.240;2022-12-19T06:26:19;3.50;99.90
18339;DHT22;9295;44.484;11.240;2022-12-19T06:28:49;3.60;99.90
18339;DHT22;9295;44.484;11.240;2022-12-19T06:31:21;3.60;99.90
18339;DHT22;9295;44.484;11.240;2022-12-19T06:33:50;3.60;99.90
18339;DHT22;9295;44.484;11.240;2022-12-19T06:36:20;3.60;99.90
18339;DHT22;9295;44.484;11.240;2022-12-19T06:38:50;3.70;99.90
18339;DHT22;9295;44.484;11.240;2022-12-19T06:41:19;3.80;99.90
18339;DHT22;9295;44.484;11.240;2022-12-19T06:44:06;3.80;99.90
18339;DHT22;9295;44.484;11.240;2022-12-19T06:46:39;3.80;99.90
18339;DHT22;9295;44.484;11.240;2022-12-19T06:49:08;3.80;99.90
18339;DHT22;9295;44.484;11.240;2022-12-19T06:51:37;3.80;99.90
18339;DHT22;9295;44.484;11.240;2022-12-19T06:54:05;3.80;99.90
18339;DHT22;9295;44.484;11.240;2022-12-19T06:56:35;3.80;99.90
18339;DHT22;9295;44.484;11.240;2022-12-19T06:59:03;3.80;99.90
18339;DHT22;9295;44.484;11.240;2022-12-19T07:01:51;3.80;99.90
18339;DHT22;9295;44.484;11.240;2022-12-19T07:04:27;3.80;99.90
18339;DHT22;9295;44.484;11.240;2022-12-19T07:06:56;3.80;99.90
18339;DHT22;9295;44.484;11.240;2022-12-19T07:09:26;3.70;99.90
18339;DHT22;9295;44.484;11.240;2022-12-19T07:11:55;3.70;99.90
18339;DHT22;9295;44.484;11.240;2022-12-19T07:14:24;3.70;99.90
18339;DHT22;9295;44.484;11.240;2022-12-19T07:16:54;3.70;99.90
18339;DHT22;9295;44.484;11.240;2022-12-19T07:19:26;3.70;99.90
18339;DHT22;9295;44.484;11.240;2022-12-19T07:21:55;3.80;99.90
18339;DHT22;9295;44.484;11.240;2022-12-19T07:24:23;3.80;99.90
18339;DHT22;9295;44.484;11.240;2022-12-19T07:26:52;3.80;99.90
18339;DHT22;9295;44.484;11.240;2022-12-19T07:29:20;3.80;99.90
18339;DHT22;9295;44.484;11.240;2022-12-19T07:31:49;3.80;99.90
18339;DHT22;9295;44.484;11.240;2022-12-19T07:34:19;3.80;99.90
18339;DHT22;9295;44.484;11.240;2022-12-19T07:36:50;3.80;99.90
18339;DHT22;9295;44.484;11.240;2022-12-19T07:39:18;3.80;99.90
18339;DHT22;9295;44.484;11.240;2022-12-19T07:41:47;3.80;99.90
18339;DHT22;9295;44.484;11.240;2022-12-19T07:44:28;3.90;99.90
18339;DHT22;9295;44.484;11.240;2022-12-19T07:46:57;3.90;99.90
18339;DHT22;9295;44.484;11.240;2022-12-19T07:49:27;3.90;99.90
18339;DHT22;9295;44.484;11.240;2022-12-19T07:51:55;3.90;99.90
18339;DHT22;9295;44.484;11.240;2022-12-19T07:54:24;3.90;99.90
18339;DHT22;9295;44.484;11.240;2022-12-19T07:56:52;4.00;99.90
18339;DHT22;9295;44.484;11.240;2022-12-19T07:59:21;4.00;99.90
18339;DHT22;9295;44.484;11.240;2022-12-19T08:01:57;4.10;99.90
18339;DHT22;9295;44.484;11.240;2022-12-19T08:04:27;4.10;99.90
18339;DHT22;9295;44.484;11.240;2022-12-19T08:06:55;4.20;99.90
18339;DHT22;9295;44.484;11.240;2022-12-19T08:09:24;4.30;99.90
18339;DHT22;9295;44.484;11.240;2022-12-19T08:11:54;4.30;99.90
18339;DHT22;9295;44.484;11.240;2022-12-19T08:14:22;4.40;99.90
18339;DHT22;9295;44.484;11.240;2022-12-19T08:16:51;4.40;99.90
18339;DHT22;9295;44.484;11.240;2022-12-19T08:19:41;4.40;99.90
18339;DHT22;9295;44.484;11.240;2022-12-19T08:22:09;4.40;99.90
18339;DHT22;9295;44.484;11.240;2022-12-19T08:24:38;4.50;99.90
18339;DHT22;9295;44.484;11.240;2022-12-19T08:27:06;4.50;99.90
18339;DHT22;9295;44.484;11.240;2022-12-19T08:29:35;4.60;99.90
18339;DHT22;9295;44.484;11.240;2022-12-19T08:32:03;4.70;99.90
18339;DHT22;9295;44.484;11.240;2022-12-19T08:34:32;4.60;99.90
18339;DHT22;9295;44.484;11.240;2022-12-19T08:37:02;4.70;99.90
18339;DHT22;9295;44.484;11.240;2022-12-19T08:39:30;4.70;99.90
18339;DHT22;9295;44.484;11.240;2022-12-19T08:41:59;4.70;99.90
18339;DHT22;9295;44.484;11.240;2022-12-19T08:44:28;4.70;99.90
18339;DHT22;9295;44.484;11.240;2022-12-19T08:46:56;4.80;99.90
18339;DHT22;9295;44.484;11.240;2022-12-19T08:49:25;4.90;99.90
18339;DHT22;9295;44.484;11.240;2022-12-19T08:51:53;4.90;99.90
18339;DHT22;9295;44.484;11.240;2022-12-19T08:54:23;4.90;99.90
18339;DHT22;9295;44.484;11.240;2022-12-19T08:56:53;4.90;99.90
18339;DHT22;9295;44.484;11.240;2022-12-19T08:59:21;5.00;99.90
18339;DHT22;9295;44.484;11.240;2022-12-19T09:01:58;5.00;99.90
18339;DHT22;9295;44.484;11.240;2022-12-19T09:04:27;5.00;99.90
18339;DHT22;9295;44.484;11.240;2022-12-19T09:07:16;5.00;99.90
18339;DHT22;9295;44.484;11.240;2022-12-19T09:09:45;5.10;99.90
18339;DHT22;9295;44.484;11.240;2022-12-19T09:12:14;5.10;99.90
18339;DHT22;9295;44.484;11.240;2022-12-19T09:14:43;5.20;99.90
18339;DHT22;9295;44.484;11.240;2022-12-19T09:17:12;5.20;99.90
18339;DHT22;9295;44.484;11.240;2022-12-19T09:19:41;5.20;99.90
18339;DHT22;9295;44.484;11.240;2022-12-19T09:22:14;5.20;99.90
18339;DHT22;9295;44.484;11.240;2022-12-19T09:24:42;5.20;99.90
18339;DHT22;9295;44.484;11.240;2022-12-19T09:27:13;5.30;99.90
18339;DHT22;9295;44.484;11.240;2022-12-19T09:29:41;5.30;99.90
18339;DHT22;9295;44.484;11.240;2022-12-19T09:32:10;5.30;99.90
18339;DHT22;9295;44.484;11.240;2022-12-19T09:34:39;5.30;99.90
18339;DHT22;9295;44.484;11.240;2022-12-19T09:37:09;5.30;99.90
18339;DHT22;9295;44.484;11.240;2022-12-19T09:39:44;5.30;99.90
18339;DHT22;9295;44.484;11.240;2022-12-19T09:42:25;5.40;99.90
18339;DHT22;9295;44.484;11.240;2022-12-19T09:45:24;5.50;99.90
18339;DHT22;9295;44.484;11.240;2022-12-19T09:47:59;5.60;99.90
18339;DHT22;9295;44.484;11.240;2022-12-19T09:50:35;5.70;99.90
18339;DHT22;9295;44.484;11.240;2022-12-19T09:53:17;5.70;99.90
18339;DHT22;9295;44.484;11.240;2022-12-19T09:55:47;5.80;99.90
18339;DHT22;9295;44.484;11.240;2022-12-19T09:58:25;5.80;99.90
18339;DHT22;9295;44.484;11.240;2022-12-19T10:00:57;5.90;99.90
18339;DHT22;9295;44.484;11.240;2022-12-19T10:03:29;5.90;99.90
18339;DHT22;9295;44.484;11.240;2022-12-19T10:06:12;5.90;99.90
18339;DHT22;9295;44.484;11.240;2022-12-19T10:09:04;5.90;99.90
18339;DHT22;9295;44.484;11.240;2022-12-19T10:12:08;6.00;99.90
18339;DHT22;9295;44.484;11.240;2022-12-19T10:15:07;6.00;99.90
18339;DHT22;9295;44.484;11.240;2022-12-19T10:17:56;6.00;99.90
18339;DHT22;9295;44.484;11.240;2022-12-19T10:20:28;6.00;99.90
18339;DHT22;9295;44.484;11.240;2022-12-19T10:23:06;6.00;99.90
18339;DHT22;9295;44.484;11.240;2022-12-19T10:25:50;6.10;99.90
18339;DHT22;9295;44.484;11.240;2022-12-19T10:28:36;6.00;99.90
18339;DHT22;9295;44.484;11.240;2022-12-19T10:31:15;6.00;99.90
18339;DHT22;9295;44.484;11.240;2022-12-19T10:33:54;6.00;99.90
18339;DHT22;9295;44.484;11.240;2022-12-19T10:36:24;6.00;99.90
18339;DHT22;9295;44.484;11.240;2022-12-19T10:39:23;6.10;99.90
18339;DHT22;9295;44.484;11.240;2022-12-19T10:42:06;6.20;99.90
18339;DHT22;9295;44.484;11.240;2022-12-19T10:44:41;6.30;99.90
18339;DHT22;9295;44.484;11.240;2022-12-19T10:47:14;6.30;99.90
18339;DHT22;9295;44.484;11.240;2022-12-19T10:49:43;6.40;99.90
18339;DHT22;9295;44.484;11.240;2022-12-19T10:52:12;6.40;99.90
18339;DHT22;9295;44.484;11.240;2022-12-19T10:54:41;6.40;99.90
18339;DHT22;9295;44.484;11.240;2022-12-19T10:57:17;6.40;99.90
18339;DHT22;9295;44.484;11.240;2022-12-19T10:59:57;6.40;99.90
18339;DHT22;9295;44.484;11.240;2022-12-19T11:02:34;6.40;99.90
18339;DHT22;9295;44.484;11.240;2022-12-19T11:05:21;6.30;99.90
18339;DHT22;9295;44.484;11.240;2022-12-19T11:08:14;6.30;99.90
18339;DHT22;9295;44.484;11.240;2022-12-19T11:10:44;6.20;99.90
18339;DHT22;9295;44.484;11.240;2022-12-19T11:13:40;6.20;99.90
18339;DHT22;9295;44.484;11.240;2022-12-19T11:16:34;6.20;99.90
18339;DHT22;9295;44.484;11.240;2022-12-19T11:19:30;6.20;99.90
18339;DHT22;9295;44.484;11.240;2022-12-19T11:22:21;6.10;99.90
18339;DHT22;9295;44.484;11.240;2022-12-19T11:25:15;6.20;99.90
18339;DHT22;9295;44.484;11.240;2022-12-19T11:28:05;6.20;99.90
18339;DHT22;9295;44.484;11.240;2022-12-19T11:31:02;6.20;99.90
18339;DHT22;9295;44.484;11.240;2022-12-19T11:33:53;6.20;99.90
18339;DHT22;9295;44.484;11.240;2022-12-19T11:36:29;6.20;99.90
18339;DHT22;9295;44.484;11.240;2022-12-19T11:39:00;6.30;99.90
18339;DHT22;9295;44.484;11.240;2022-12-19T11:41:34;6.30;99.90
18339;DHT22;9295;44.484;11.240;2022-12-19T11:44:10;6.30;99.90
18339;DHT22;9295;44.484;11.240;2022-12-19T11:46:43;6.30;99.90
18339;DHT22;9295;44.484;11.240;2022-12-19T11:49:23;6.30;99.90
18339;DHT22;9295;44.484;11.240;2022-12-19T11:51:59;6.30;99.90
18339;DHT22;9295;44.484;11.240;2022-12-19T11:54:33;6.40;99.90
18339;DHT22;9295;44.484;11.240;2022-12-19T11:57:03;6.40;99.90
18339;DHT22;9295;44.484;11.240;2022-12-19T11:59:34;6.40;99.90
18339;DHT22;9295;44.484;11.240;2022-12-19T12:02:27;6.50;99.90
18339;DHT22;9295;44.484;11.240;2022-12-19T12:05:18;6.40;99.90
18339;DHT22;9295;44.484;11.240;2022-12-19T12:08:17;6.40;99.90
18339;DHT22;9295;44.484;11.240;2022-12-19T12:11:18;6.40;99.90
18339;DHT22;9295;44.484;11.240;2022-12-19T12:14:15;6.40;99.90
18339;DHT22;9295;44.484;11.240;2022-12-19T12:17:25;6.40;99.90
18339;DHT22;9295;44.484;11.240;2022-12-19T12:20:22;6.40;99.90
18339;DHT22;9295;44.484;11.240;2022-12-19T12:23:24;6.40;99.90
18339;DHT22;9295;44.484;11.240;2022-12-19T12:26:21;6.40;99.90
18339;DHT22;9295;44.484;11.240;2022-12-19T12:29:16;6.40;99.90
18339;DHT22;9295;44.484;11.240;2022-12-19T12:32:19;6.40;99.90
18339;DHT22;9295;44.484;11.240;2022-12-19T12:35:20;6.40;99.90
18339;DHT22;9295;44.484;11.240;2022-12-19T12:38:30;6.50;99.90
18339;DHT22;9295;44.484;11.240;2022-12-19T12:41:09;6.50;99.90
18339;DHT22;9295;44.484;11.240;2022-12-19T12:43:50;6.50;99.90
18339;DHT22;9295;44.484;11.240;2022-12-19T12:46:27;6.50;99.90
18339;DHT22;9295;44.484;11.240;2022-12-19T12:49:01;6.50;99.90
18339;DHT22;9295;44.484;11.240;2022-12-19T12:51:31;6.60;99.90
18339;DHT22;9295;44.484;11.240;2022-12-19T12:54:05;6.60;99.90
18339;DHT22;9295;44.484;11.240;2022-12-19T12:56:35;6.60;99.90
18339;DHT22;9295;44.484;11.240;2022-12-19T12:59:20;6.60;99.90
18339;DHT22;9295;44.484;11.240;2022-12-19T13:01:51;6.60;99.90
18339;DHT22;9295;44.484;11.240;2022-12-19T13:04:31;6.60;99.90
18339;DHT22;9295;44.484;11.240;2022-12-19T13:07:28;6.50;99.90
18339;DHT22;9295;44.484;11.240;2022-12-19T13:10:15;6.50;99.90
18339;DHT22;9295;44.484;11.240;2022-12-19T13:13:07;6.50;99.90
18339;DHT22;9295;44.484;11.240;2022-12-19T13:15:43;6.40;99.90
18339;DHT22;9295;44.484;11.240;2022-12-19T13:18:33;6.50;99.90
18339;DHT22;9295;44.484;11.240;2022-12-19T13:21:06;6.40;99.90
18339;DHT22;9295;44.484;11.240;2022-12-19T13:23:58;6.40;99.90
18339;DHT22;9295;44.484;11.240;2022-12-19T13:26:46;6.50;99.90
18339;DHT22;9295;44.484;11.240;2022-12-19T13:29:51;6.50;99.90
18339;DHT22;9295;44.484;11.240;2022-12-19T13:32:21;6.50;99.90
18339;DHT22;9295;44.484;11.240;2022-12-19T13:34:56;6.40;99.90
18339;DHT22;9295;44.484;11.240;2022-12-19T13:37:47;6.40;99.90
18339;DHT22;9295;44.484;11.240;2022-12-19T13:40:55;6.50;99.90
18339;DHT22;9295;44.484;11.240;2022-12-19T13:43:27;6.50;99.90
18339;DHT22;9295;44.484;11.240;2022-12-19T13:46:23;6.50;99.90
18339;DHT22;9295;44.484;11.240;2022-12-19T13:48:56;6.50;99.90
18339;DHT22;9295;44.484;11.240;2022-12-19T13:51:27;6.50;99.90
18339;DHT22;9295;44.484;11.240;2022-12-19T13:54:19;6.50;99.90
18339;DHT22;9295;44.484;11.240;2022-12-19T13:56:49;6.60;99.90
18339;DHT22;9295;44.484;11.240;2022-12-19T13:59:21;6.60;99.90
18339;DHT22;9295;44.484;11.240;2022-12-19T14:01:52;6.60;99.90
18339;DHT22;9295;44.484;11.240;2022-12-19T14:04:27;6.50;99.90
18339;DHT22;9295;44.484;11.240;2022-12-19T14:06:58;6.50;99.90
18339;DHT22;9295;44.484;11.240;2022-12-19T14:09:31;6.50;99.90
18339;DHT22;9295;44.484;11.240;2022-12-19T14:12:22;6.60;99.90
18339;DHT22;9295;44.484;11.240;2022-12-19T14:15:32;6.70;99.90
18339;DHT22;9295;44.484;11.240;2022-12-19T14:18:08;6.60;99.90
18339;DHT22;9295;44.484;11.240;2022-12-19T14:21:14;6.50;99.90
18339;DHT22;9295;44.484;11.240;2022-12-19T14:24:14;6.50;99.90
18339;DHT22;9295;44.484;11.240;2022-12-19T14:26:45;6.50;99.90
18339;DHT22;9295;44.484;11.240;2022-12-19T14:29:40;6.60;99.90
18339;DHT22;9295;44.484;11.240;2022-12-19T14:32:31;6.60;99.90
18339;DHT22;9295;44.484;11.240;2022-12-19T14:35:21;6.60;99.90
18339;DHT22;9295;44.484;11.240;2022-12-19T14:38:16;6.60;99.90
18339;DHT22;9295;44.484;11.240;2022-12-19T14:41:05;6.60;99.90
18339;DHT22;9295;44.484;11.240;2022-12-19T14:43:54;6.50;99.90
18339;DHT22;9295;44.484;11.240;2022-12-19T14:46:42;6.60;99.90
18339;DHT22;9295;44.484;11.240;2022-12-19T14:49:32;6.60;99.90
18339;DHT22;9295;44.484;11.240;2022-12-19T14:52:39;6.60;99.90
18339;DHT22;9295;44.484;11.240;2022-12-19T14:55:30;6.50;99.90
18339;DHT22;9295;44.484;11.240;2022-12-19T14:58:27;6.50;99.90
18339;DHT22;9295;44.484;11.240;2022-12-19T15:01:21;6.50;99.90
18339;DHT22;9295;44.484;11.240;2022-12-19T15:03:54;6.60;99.90
18339;DHT22;9295;44.484;11.240;2022-12-19T15:06:44;6.60;99.90
18339;DHT22;9295;44.484;11.240;2022-12-19T15:09:37;6.50;99.90
18339;DHT22;9295;44.484;11.240;2022-12-19T15:12:31;6.50;99.90
18339;DHT22;9295;44.484;11.240;2022-12-19T15:15:39;6.50;99.90
18339;DHT22;9295;44.484;11.240;2022-12-19T15:18:19;6.50;99.90
18339;DHT22;9295;44.484;11.240;2022-12-19T15:20:48;6.50;99.90
18339;DHT22;9295;44.484;11.240;2022-12-19T15:23:19;6.50;99.90
18339;DHT22;9295;44.484;11.240;2022-12-19T15:25:49;6.50;99.90
18339;DHT22;9295;44.484;11.240;2022-12-19T15:28:39;6.40;99.90
18339;DHT22;9295;44.484;11.240;2022-12-19T15:31:26;6.40;99.90
18339;DHT22;9295;44.484;11.240;2022-12-19T15:33:56;6.40;99.90
18339;DHT22;9295;44.484;11.240;2022-12-19T15:37:03;6.40;99.90
18339;DHT22;9295;44.484;11.240;2022-12-19T15:39:32;6.40;99.90
18339;DHT22;9295;44.484;11.240;2022-12-19T15:42:01;6.40;99.90
18339;DHT22;9295;44.484;11.240;2022-12-19T15:44:32;6.30;99.90
18339;DHT22;9295;44.484;11.240;2022-12-19T15:47:02;6.30;99.90
18339;DHT22;9295;44.484;11.240;2022-12-19T15:49:31;6.30;99.90
18339;DHT22;9295;44.484;11.240;2022-12-19T15:52:01;6.30;99.90
18339;DHT22;9295;44.484;11.240;2022-12-19T15:54:29;6.30;99.90
18339;DHT22;9295;44.484;11.240;2022-12-19T15:57:23;6.30;99.90
18339;DHT22;9295;44.484;11.240;2022-12-19T15:59:54;6.30;99.90
18339;DHT22;9295;44.484;11.240;2022-12-19T16:02:26;6.10;99.90
18339;DHT22;9295;44.484;11.240;2022-12-19T16:05:15;6.20;99.90
18339;DHT22;9295;44.484;11.240;2022-12-19T16:07:45;6.20;99.90
18339;DHT22;9295;44.484;11.240;2022-12-19T16:10:14;6.30;99.90
18339;DHT22;9295;44.484;11.240;2022-12-19T16:12:45;6.30;99.90
18339;DHT22;9295;44.484;11.240;2022-12-19T16:15:25;6.20;99.90
18339;DHT22;9295;44.484;11.240;2022-12-19T16:17:56;6.20;99.90
18339;DHT22;9295;44.484;11.240;2022-12-19T16:20:26;6.20;99.90
18339;DHT22;9295;44.484;11.240;2022-12-19T16:22:55;6.20;99.90
18339;DHT22;9295;44.484;11.240;2022-12-19T16:25:28;6.20;99.90
18339;DHT22;9295;44.484;11.240;2022-12-19T16:28:00;6.20;99.90
18339;DHT22;9295;44.484;11.240;2022-12-19T16:30:31;6.20;99.90
18339;DHT22;9295;44.484;11.240;2022-12-19T16:33:00;6.20;99.90
18339;DHT22;9295;44.484;11.240;2022-12-19T16:35:29;6.20;99.90
18339;DHT22;9295;44.484;11.240;2022-12-19T16:38:18;6.20;99.90
18339;DHT22;9295;44.484;11.240;2022-12-19T16:40:48;6.20;99.90